Weather observations for the past three days for
Curtis L Brown Jr. Field Airport
Imperial (Metric)
Date Time (edt) Wind (mph) Vis. (mi.) Weather Sky Cond. Temperature (ºF) Relative Humidity Wind Chill (°F) Heat Index (°F) Pressure Precipitation (in)
Air Dwpt 6 hour altimeter (in) sea level (mb) 1 hr 3 hr 6 hr
Max. Min.
04 07:55 S 7 10.00 Fair CLR 56.8 49.1 57 47.7 75% 30.08 0.0
04 07:35 S 7 10.00 Fair CLR 54.1 48.9 83% 30.08 0.0
04 07:15 S 6 10.00 Fair CLR 51.1 47.3 87% 30.09 0.0
04 06:55 S 5 10.00 Fair CLR 49.1 46.8 92% 48 30.08 0.0
04 06:35 S 3 10.00 Fair CLR 48 45.7 92% 30.08 0.0
04 06:15 S 3 10.00 Fair CLR 48.6 46 91% 30.07 0.0
04 05:55 S 5 10.00 Fair CLR 48.7 46.4 92% 47 30.07 0.0
04 05:35 S 5 10.00 Fair CLR 50 46.9 89% 49 30.07 0.0
04 05:15 S 5 10.00 Fair CLR 49.5 46.2 89% 48 30.07 0.0
04 04:55 S 5 10.00 Fair CLR 50.4 47.1 89% 30.08 0.0
04 04:35 SW 5 10.00 Fair CLR 50.2 46.9 89% 30.08 0.0
04 04:15 S 5 10.00 Fair CLR 50.9 47.1 87% 30.08 0.0
04 03:55 S 6 10.00 Fair CLR 50.9 47.1 87% 30.08 0.0
04 03:35 S 7 10.00 Fair CLR 51.6 47.3 85% 30.08 0.0
04 03:15 S 8 10.00 Fair CLR 51.8 47.3 85% 30.07 0.0
04 02:55 S 6 10.00 Fair CLR 52 46.9 83% 30.08 0.0
04 02:35 SW 6 10.00 Fair CLR 52.7 46.9 81% 30.08 0.0
04 02:15 SW 6 10.00 Fair CLR 52.5 46.9 81% 30.08 0.0
04 01:55 SW 7 10.00 Fair CLR 52.7 46.9 62.8 52.7 81% 30.08 0.0
04 01:35 SW 7 10.00 Fair CLR 53.4 46.9 79% 30.09 0.0
04 01:15 S 7 10.00 Fair CLR 54.3 46.8 76% 30.09 0.0
04 00:55 S 8 10.00 Fair CLR 54.3 46.9 76% 30.09 0.0
04 00:35 SW 7 10.00 Fair CLR 54.3 46.9 76% 30.09 0.0
04 00:15 S 9 10.00 Fair CLR 54.7 46.8 75% 30.09 0.0
03 23:55 S 9 10.00 Fair CLR 54.9 46.8 74% 30.09 0.0
03 23:35 S 8 10.00 Fair CLR 54.9 46.6 74% 30.09 0.0
03 23:15 S 8 10.00 Fair CLR 54.9 46.2 73% 30.08 0.0
03 22:55 S 8 10.00 Fair CLR 55 45.7 71% 30.09 0.0
03 22:35 S 8 10.00 Fair CLR 55 45.1 69% 30.08 0.0
03 22:15 S 10 10.00 Fair CLR 54.9 44.6 69% 30.08 0.0
03 21:55 S 7 10.00 Fair CLR 56.8 43.5 61% 30.07 0.0
03 21:35 S 7 10.00 Fair CLR 57 43.5 61% 30.06 0.0
03 21:15 S 7 10.00 Fair CLR 58.1 43.3 58% 30.06 0.0
03 20:55 S 7 10.00 Fair CLR 58.8 43.7 57% 30.05 0.0
03 20:35 S 6 10.00 Fair CLR 60.1 42.8 53% 30.04 0.0
03 20:15 S 6 10.00 Fair CLR 61.7 41.9 48% 30.04 0.0
03 19:55 S 5 10.00 Fair CLR 63.1 40.8 69.1 63 44% 30.03 0.0
03 19:35 SW 5 10.00 Fair CLR 64.8 39.9 40% 30.03 0.0
03 19:15 SW 6 10.00 Fair CLR 65.8 38.8 37% 30.03 0.0
03 18:55 SW 7 10.00 Fair CLR 66.9 37.8 34% 30.03 0.0
03 18:35 SW 8 10.00 Fair CLR 67.8 36.9 32% 30.03 0.0
03 18:15 W 8 10.00 Fair CLR 68.2 35.1 30% 30.03 0.0
03 17:55 W 9 10.00 Fair CLR 68.5 35.1 29% 30.03 0.0
03 17:35 SW 10 10.00 Fair CLR 68.4 36 30% 30.02 0.0
03 17:15 SW 9 10.00 Fair CLR 68.4 35.8 30% 30.02 0.0
03 16:55 W 6 10.00 Fair CLR 68.2 35.6 30% 30.03 0.0
03 16:35 W 7 10.00 Fair CLR 68.5 35.4 30% 30.04 0.0
03 16:15 NW 13 10.00 Fair CLR 68.2 35.8 30% 30.04 0.0
03 15:55 W 8 10.00 Fair CLR 67.5 36 31% 30.05 0.0
03 15:35 W 8 G 18 10.00 Fair CLR 67.5 35.1 30% 30.05 0.0
03 15:15 W 13 G 21 10.00 Fair CLR 66.6 35.4 32% 30.06 0.0
03 14:55 W 12 10.00 Fair CLR 67.1 36.7 33% 30.07 0.0
03 14:35 W 13 G 18 10.00 Fair CLR 65.8 35.2 32% 30.08 0.0
03 14:15 NW 12 10.00 Fair CLR 66 37.2 35% 30.09 0.0
03 13:55 W 10 10.00 Fair CLR 64.9 37 65.7 48.4 36% 30.09 0.0
03 13:35 W 13 G 18 10.00 Fair CLR 64.8 37.6 37% 30.1 0.0
03 13:15 NW 12 G 18 10.00 Fair CLR 63.1 35.6 36% 30.1 0.0
03 12:55 SW 10 10.00 Fair CLR 62.8 36 37% 30.11 0.0
03 12:35 W 7 10.00 Fair CLR 61.2 35.6 39% 30.12 0.0
03 12:15 NW 7 10.00 Fair CLR 60.4 34.9 38% 30.13 0.0
03 11:55 NW 8 10.00 Fair CLR 60.8 36 40% 30.13 0.0
03 11:35 N 6 10.00 Fair CLR 59.4 35.2 41% 30.13 0.0
03 11:15 N 10 10.00 Fair CLR 59 35.8 42% 30.13 0.0
03 10:55 NW 10 G 18 10.00 Fair CLR 58.6 33.8 39% 30.13 0.0
03 10:35 N 12 G 17 10.00 Fair CLR 57.7 34.7 42% 30.13 0.0
03 10:15 N 9 10.00 Fair CLR 56.7 38.7 51% 30.13 0.0
03 09:55 NW 6 10.00 Fair CLR 55 39 55% 30.13 0.0
03 09:35 N 8 10.00 Fair CLR 53.8 40.1 60% 30.12 0.0
03 09:15 N 8 10.00 Fair CLR 53.2 40.8 63% 30.13 0.0
03 08:55 NW 8 10.00 Fair CLR 52 40.3 65% 30.13 0.0
03 08:35 NW 9 10.00 Fair CLR 50.5 40.6 69% 30.12 0.0
03 08:15 NW 8 10.00 Fair CLR 49.6 41.2 73% 47 30.11 0.0
03 07:55 NW 8 10.00 Fair CLR 48.4 41 48.6 43.9 76% 45 30.11 0.0
03 07:35 NW 7 10.00 Fair CLR 47.3 40.6 78% 44 30.1 0.0
03 07:15 N 6 10.00 Fair CLR 46.2 41 82% 44 30.09 0.0
03 06:55 NW 7 10.00 Fair CLR 45.3 41.4 86% 42 30.08 0.0
03 06:35 NW 6 10.00 Fair CLR 44.4 41.9 91% 42 30.06 0.0
03 06:15 NW 6 10.00 Fair CLR 44.2 42.1 92% 41 30.05 0.0
03 05:55 NW 5 10.00 Fair CLR 44.4 42.8 94% 42 30.05 0.0
03 05:35 NW 5 10.00 Fair CLR 44.8 43.3 95% 43 30.04 0.0
03 05:15 NW 3 10.00 Fair CLR 45.1 43.7 95% 30.04 0.0
03 04:55 NW 5 10.00 Fair CLR 45.9 44.4 95% 44 30.03 0.0
03 04:35 W 3 10.00 Fair CLR 46 45.1 97% 30.03 0.0
03 04:15 NW 5 10.00 Fair CLR 46.6 45.7 97% 45 30.02 0.0
03 03:55 W 6 10.00 Fair CLR 47.1 46.6 98% 45 30.01 0.0
03 03:35 W 7 10.00 Fair CLR 47.1 46.6 98% 44 30.01 0.0
03 03:15 W 6 10.00 Fair CLR 46.9 46.4 98% 45 30 0.0
03 02:55 W 6 10.00 Partly Cloudy SCT120 47.5 46.9 98% 45 30 0.0
03 02:35 W 5 10.00 Partly Cloudy SCT120 47.7 47.3 99% 46 29.99 0.0
03 02:15 W 6 10.00 Fair CLR 47.8 47.5 99% 46 29.99 0.0
03 01:55 W 5 10.00 Partly Cloudy SCT120 48.2 47.8 52.7 48 99% 47 29.99 0.0 0.01
03 01:35 NW 5 7.00 Fair CLR 48.4 48 99% 47 29.99 0.0
03 01:15 NW 3 7.00 Fog/Mist CLR 48.7 48.4 99% 29.99 0.0
03 00:55 NW 3 7.00 Fair CLR 50 48.2 94% 29.99 0.0
03 00:35 NW 3 7.00 Fog/Mist CLR 49.5 49.1 99% 29.98 0.0
03 00:15 W 3 5.00 Fog/Mist CLR 50 49.6 99% 29.97 0.0
02 23:55 NW 3 5.00 Fog/Mist SCT003 50.4 50 99% 29.97 0.0
02 23:35 NW 3 7.00 Fog/Mist SCT003 50.7 50.4 99% 29.96 0.0
02 23:15 Calm 10.00 Partly Cloudy SCT003 SCT120 51.3 50.7 98% 29.96 0.0
02 22:55 NW 5 10.00 Mostly Cloudy SCT003 BKN120 52 51.4 98% 29.96 0.0
02 22:35 N 5 10.00 Mostly Cloudy BKN120 52.2 51.4 97% 29.96 0.0
02 22:15 NW 3 10.00 Overcast OVC120 52.2 51.4 97% 29.96 0.0
02 21:55 N 5 10.00 Overcast OVC110 52.2 51.6 98% 29.95 0.0
02 21:35 N 5 10.00 Overcast SCT004 SCT008 OVC120 52.3 51.8 98% 29.95 0.0
02 21:15 NW 5 10.00 Overcast SCT004 SCT008 OVC120 52.3 51.8 98% 29.93 0.0
02 20:55 N 3 10.00 Mostly Cloudy BKN120 52.5 51.8 97% 29.92 0.0
02 20:35 N 3 10.00 Mostly Cloudy BKN100 BKN120 52.5 51.6 97% 29.91 0.0
02 20:15 N 3 10.00 Overcast OVC090 52.3 51.4 97% 29.9 0.0
02 19:55 N 6 10.00 Overcast SCT007 OVC090 52.5 51.6 56.5 52.3 97% 29.9 0.0 0.09
02 19:35 N 5 10.00 Light Drizzle BKN007 BKN017 OVC090 52.7 52 97% 29.9 0.0
02 19:15 N 5 10.00 Light Drizzle BKN007 BKN012 OVC018 52.9 52.2 97% 29.89 0.0
02 18:55 N 6 7.00 Light Rain Fog/Mist BKN007 OVC012 53.1 52.2 97% 29.89 0.0
02 18:35 N 6 10.00 Overcast BKN007 BKN014 OVC019 53.1 52 96% 29.89 0.0
02 18:15 N 8 7.00 Overcast OVC007 52.9 52 97% 29.89 0.0
02 17:55 N 7 7.00 Light Drizzle Fog/Mist BKN007 OVC011 52.9 52 97% 29.89 0.0
02 17:35 N 7 5.00 Light Drizzle Fog/Mist OVC007 52.9 52 97% 29.88 0.0
02 17:15 N 10 7.00 Light Drizzle OVC007 53.4 52.3 96% 29.87 0.0
02 16:55 N 9 7.00 Light Drizzle Fog/Mist OVC007 54.1 53.1 96% 29.87 0.0 0.09
02 16:35 N 7 10.00 Overcast BKN005 OVC011 54.5 53.6 97% 29.87 0.0
02 16:15 N 7 10.00 Overcast BKN007 OVC011 55 54 96% 29.86 0.0
02 15:55 N 6 10.00 Light Rain BKN007 OVC013 55.9 54.9 96% 29.86 0.0 0.03
02 15:35 N 6 10.00 Light Rain BKN007 BKN011 OVC016 55.9 55 97% 29.86 0.0 0.03
02 15:15 NE 6 7.00 Light Rain BKN007 BKN012 OVC025 55.6 54.7 97% 29.86 0.0 0.02
02 14:55 N 7 4.00 Rain Fog/Mist BKN007 OVC013 55.4 54.7 97% 29.88 0.0 0.06
02 14:35 N 7 5.00 Light Rain Fog/Mist BKN005 OVC010 55.4 54.7 97% 29.89 0.0 0.03
02 14:15 N 6 4.00 Light Rain Fog/Mist OVC005 55.4 54.7 97% 29.88 0.0 0.01
02 13:55 N 6 2.00 Light Rain Fog/Mist OVC003 55.2 54.7 56.1 54.3 98% 29.88 0.0 0.06 0.27
02 13:35 N 3 2.00 Light Rain Fog/Mist OVC005 55.4 54.9 98% 29.89 0.0 0.04
02 13:15 N 6 7.00 Light Rain Fog/Mist BKN005 OVC010 55.2 54.5 97% 29.9 0.0 0.01
02 12:55 NE 5 7.00 Light Rain BKN005 OVC011 55.4 54.5 97% 29.88 0.0 0.07
02 12:35 N 5 4.00 Light Rain Fog/Mist BKN007 OVC013 54.9 54 97% 29.9 0.0 0.06
02 12:15 N 7 4.00 Light Rain Fog/Mist BKN007 OVC013 54.9 54 97% 29.91 0.0 0.04
02 11:55 N 7 5.00 Rain Fog/Mist BKN007 OVC011 54.9 54 97% 29.93 0.0 0.07
02 11:35 N 6 7.00 Light Rain Fog/Mist OVC007 55 54.1 97% 29.92 0.0 0.04
02 11:15 N 6 4.00 Light Rain Fog/Mist OVC007 54.7 53.8 97% 29.91 0.0 0.03
02 10:55 NE 6 5.00 Light Rain Fog/Mist BKN007 OVC013 54.5 53.4 96% 29.92 0.0 0.04 0.06
02 10:35 N 5 5.00 Light Rain Fog/Mist BKN009 OVC012 55 53.8 96% 29.93 0.0 0.03
02 10:15 N 5 7.00 Light Rain BKN009 OVC048 55.4 53.6 94% 29.92 0.0 0.01
02 09:55 N 8 10.00 Light Rain BKN009 OVC050 55.8 54.1 94% 29.9 0.0
02 09:35 N 6 10.00 Light Rain BKN007 BKN012 OVC050 55.6 54.3 96% 29.88 0.0
02 09:15 N 8 7.00 Overcast OVC007 55.6 54.7 97% 29.89 0.0
02 08:55 N 6 4.00 Light Rain Fog/Mist OVC005 55.6 54.9 97% 29.89 0.0 0.02
02 08:35 N 5 5.00 Light Rain Fog/Mist OVC005 54.9 54.3 98% 29.9 0.0 0.02
02 08:15 N 5 5.00 Light Rain Fog/Mist BKN007 BKN038 OVC048 54.9 54.3 98% 29.9 0.0 0.01
02 07:55 N 5 4.00 Light Rain Fog/Mist SCT007 BKN048 OVC050 54.7 54.1 58.6 54.5 98% 29.9 0.0 0.04 0.3
02 07:35 N 5 5.00 Light Rain Fog/Mist SCT018 BKN047 OVC050 54.7 54 97% 29.9 0.0 0.02
02 07:15 N 5 5.00 Light Rain Fog/Mist SCT016 BKN048 OVC050 54.9 54.3 98% 29.9 0.0 0.01
02 06:55 N 5 4.00 Light Rain Fog/Mist SCT003 OVC016 55 54.3 97% 29.89 0.0 0.03
02 06:35 N 3 5.00 Light Rain Fog/Mist SCT003 OVC016 55.2 54.7 98% 29.9 0.0 0.02
02 06:15 Calm 7.00 Light Rain Fog/Mist SCT003 OVC014 55.2 54.7 98% 29.89 0.0 0.01
02 05:55 N 5 7.00 Light Rain Fog/Mist SCT003 OVC014 55.4 54.7 97% 29.89 0.0 0.12
02 05:35 Calm 4.00 Rain Fog/Mist SCT003 BKN014 OVC019 55.4 54.9 98% 29.89 0.0 0.1
02 05:15 Calm 4.00 Rain Fog/Mist BKN014 BKN021 OVC025 55.6 54.9 97% 29.88 0.0 0.06
02 04:55 Calm 4.00 Heavy Rain Fog/Mist BKN012 BKN021 OVC033 55.8 54.7 96% 29.89 0.0 0.09 0.09
02 04:35 Calm 7.00 Rain BKN012 BKN019 OVC031 55.9 54.9 96% 29.89 0.0 0.04
02 04:15 N 3 7.00 Rain Fog/Mist SCT012 SCT021 OVC031 55.9 54.5 95% 29.87 0.0 0.02
02 03:55 N 5 10.00 Light Drizzle BKN012 OVC033 56.1 54.5 94% 29.87 0.0
02 03:35 N 5 10.00 Overcast BKN012 OVC035 56.7 54.7 93% 29.87 0.0
02 03:15 N 3 10.00 Light Rain BKN012 BKN035 OVC100 57.4 55.4 93% 29.87 0.0
02 02:35 NW 3 10.00 Overcast SCT038 BKN050 OVC110 58.1 55.6 91% 29.88 0.0
02 02:15 Calm 10.00 Overcast SCT050 OVC110 58.3 55.6 91% 29.88 0.0
02 01:55 Calm 10.00 Overcast SCT014 BKN050 OVC110 58.5 55.8 64.9 58.5 91% 29.89 0.0
02 01:35 Calm 10.00 Overcast SCT050 OVC110 58.6 55.9 91% 29.9 0.0
02 01:15 N 3 10.00 Overcast OVC120 58.8 55.6 89% 29.9 0.0
02 00:55 Calm 10.00 Overcast SCT060 OVC120 59.5 55.4 86% 29.91 0.0
02 00:35 Calm 10.00 Partly Cloudy SCT060 SCT120 59.5 55.2 86% 29.91 0.0
02 00:15 Calm 10.00 Partly Cloudy SCT027 SCT042 SCT055 60.6 54.3 80% 29.91 0.0
01 23:55 Calm 10.00 Mostly Cloudy SCT021 BKN027 BKN037 61 54.3 79% 29.91 0.0
01 23:35 SE 3 10.00 Mostly Cloudy BKN021 BKN026 BKN050 61.2 53.8 77% 29.92 0.0
01 23:15 Calm 10.00 Overcast BKN023 BKN029 OVC050 61.3 53.6 76% 29.92 0.0
01 22:55 Calm 10.00 Overcast OVC023 61.7 54 76% 29.93 0.0
01 22:35 SE 3 10.00 Overcast BKN025 OVC033 61.7 53.8 75% 29.93 0.0
01 22:15 SE 5 10.00 Mostly Cloudy SCT023 BKN033 61.3 54.1 77% 29.93 0.0
01 21:55 Calm 10.00 Partly Cloudy SCT037 61.7 54.7 78% 29.93 0.0
01 21:35 SE 5 10.00 Partly Cloudy SCT055 61.9 54.9 78% 29.92 0.0
01 21:15 SE 3 10.00 Fair CLR 61.7 55.2 79% 29.92 0.0
01 20:55 SE 5 10.00 Partly Cloudy SCT034 SCT050 SCT060 62.8 55 76% 29.91 0.0
01 20:35 Calm 10.00 Mostly Cloudy SCT034 SCT043 BKN050 63.7 55 74% 29.91 0.0
01 20:15 Calm 10.00 Overcast SCT034 BKN042 OVC055 64.4 55.2 72% 29.91 0.0
01 19:55 Calm 10.00 Overcast BKN032 OVC044 64.9 55.4 68.5 64.2 71% 29.9 0.0
01 19:35 Calm 10.00 Overcast OVC030 65.3 54.7 69% 29.92 0.0
01 19:15 Calm 10.00 Overcast BKN032 OVC039 65.5 55 69% 29.91 0.0
01 18:55 SE 3 10.00 Overcast SCT029 BKN035 OVC043 66 54 65% 29.91 0.0
01 18:35 S 5 10.00 Overcast OVC029 66 53.4 64% 29.92 0.0
01 18:15 SE 3 10.00 Overcast OVC029 66.6 53.8 64% 29.92 0.0
01 17:55 SE 5 10.00 Mostly Cloudy BKN031 BKN039 66.7 53.2 62% 29.91 0.0
01 17:35 E 5 10.00 Overcast OVC033 66.7 52.7 61% 29.91 0.0
01 17:15 SE 5 10.00 Overcast OVC033 66.9 52.5 60% 29.92 0.0
01 16:55 Calm 10.00 Overcast OVC033 66.6 51.6 59% 29.92 0.0
01 16:35 E 5 10.00 Overcast OVC035 67.3 51.6 57% 29.92 0.0
01 16:15 E 3 10.00 Overcast OVC033 66.9 50.4 55% 29.92 0.0
01 15:55 E 3 10.00 Overcast OVC033 66.7 49.3 54% 29.94 0.0
01 15:35 NE 6 10.00 Overcast OVC035 67.5 49.6 53% 29.94 0.0
01 15:15 NE 6 10.00 Partly Cloudy SCT035 SCT049 66.7 48.6 52% 29.94 0.0
01 14:55 E 6 10.00 Fair CLR 66.7 47.5 50% 29.95 0.0
01 14:35 E 6 10.00 Fair CLR 66.7 46.9 49% 29.95 0.0
01 14:15 E 5 10.00 Fair CLR 64.8 45.3 50% 29.96 0.0
01 13:55 Calm 10.00 Fair CLR 64.6 44.8 66.4 56.5 49% 29.97 0.0
01 13:35 E 6 10.00 Fair CLR 64.4 43.3 47% 29.98 0.0
01 13:15 E 7 10.00 Fair CLR 64.2 42.8 46% 29.98 0.0
01 12:55 E 7 10.00 Fair CLR 63.7 41.9 45% 29.98 0.0
01 12:35 E 8 10.00 Fair CLR 62.1 39.7 44% 29.99 0.0
01 12:15 NE 9 10.00 Fair CLR 60.8 38.8 44% 30 0.0
01 11:55 NE 8 10.00 Fair CLR 59.7 39.2 47% 30 0.0
01 11:35 NE 7 10.00 Fair CLR 58.6 38.5 47% 30 0.0
01 11:15 NE 6 10.00 Fair CLR 59 39 48% 30.01 0.0
01 10:55 NE 10 10.00 Fair CLR 58.6 39 48% 30 0.0
01 10:35 NE 12 G 17 10.00 Mostly Cloudy BKN050 58.3 39.6 50% 29.99 0.0
01 10:15 N 6 10.00 Overcast OVC050 58.5 39.4 49% 30.01 0.0
01 09:55 NE 8 10.00 Overcast SCT048 OVC055 58.6 39.2 49% 30.01 0.0
01 09:35 NE 7 10.00 Mostly Cloudy SCT045 BKN055 BKN070 59.9 40.1 48% 29.99 0.0
01 09:15 NE 8 10.00 Partly Cloudy SCT055 59.5 38.8 46% 29.98 0.0
01 08:55 NE 9 10.00 Mostly Cloudy SCT041 BKN055 57.6 38.1 48% 29.98 0.0
01 08:35 NE 10 10.00 Overcast SCT041 OVC055 56.7 37.4 49% 29.99 0.0
Date Time (edt) Wind (mph) Vis. (mi.) Weather Sky Cond. Air Dwpt Max. Min. Relative Humidity Wind Chill (°F) Heat Index (°F) altimeter (in) sea level (mb) 1 hr 3 hr 6 hr
6 hour
Temperature (ºF) Pressure Precipitation (in)